sensor_id;sensor_type;location;lat;lon;timestamp;temperature;humidity
57719;DHT22;43561;50.090;18.522;2024-02-28T00:10:01;8.70;99.90
57719;DHT22;43561;50.090;18.522;2024-02-28T00:20:03;8.70;99.90
57719;DHT22;43561;50.090;18.522;2024-02-28T00:30:06;8.60;99.90
57719;DHT22;43561;50.090;18.522;2024-02-28T00:40:08;8.60;99.90
57719;DHT22;43561;50.090;18.522;2024-02-28T00:50:10;8.50;99.90
57719;DHT22;43561;50.090;18.522;2024-02-28T01:00:13;8.50;99.90
57719;DHT22;43561;50.090;18.522;2024-02-28T01:10:15;8.40;99.90
57719;DHT22;43561;50.090;18.522;2024-02-28T01:20:17;8.30;99.90
57719;DHT22;43561;50.090;18.522;2024-02-28T01:30:19;8.20;99.90
57719;DHT22;43561;50.090;18.522;2024-02-28T01:40:21;8.30;99.90
57719;DHT22;43561;50.090;18.522;2024-02-28T01:50:23;8.20;99.90
57719;DHT22;43561;50.090;18.522;2024-02-28T02:00:27;8.20;99.90
57719;DHT22;43561;50.090;18.522;2024-02-28T02:10:30;8.20;99.90
57719;DHT22;43561;50.090;18.522;2024-02-28T02:20:33;8.00;99.90
57719;DHT22;43561;50.090;18.522;2024-02-28T02:30:39;7.90;99.90
57719;DHT22;43561;50.090;18.522;2024-02-28T02:40:41;7.90;99.90
57719;DHT22;43561;50.090;18.522;2024-02-28T02:50:43;7.90;99.90
57719;DHT22;43561;50.090;18.522;2024-02-28T03:00:45;7.80;99.90
57719;DHT22;43561;50.090;18.522;2024-02-28T03:10:47;7.80;99.90
57719;DHT22;43561;50.090;18.522;2024-02-28T03:20:49;7.80;99.90
57719;DHT22;43561;50.090;18.522;2024-02-28T03:30:51;7.60;99.90
57719;DHT22;43561;50.090;18.522;2024-02-28T03:40:53;7.60;99.90
57719;DHT22;43561;50.090;18.522;2024-02-28T03:50:55;7.40;99.90
57719;DHT22;43561;50.090;18.522;2024-02-28T04:00:57;7.30;99.90
57719;DHT22;43561;50.090;18.522;2024-02-28T04:10:59;7.20;99.90
57719;DHT22;43561;50.090;18.522;2024-02-28T04:21:15;7.10;99.90
57719;DHT22;43561;50.090;18.522;2024-02-28T04:31:17;6.80;99.90
57719;DHT22;43561;50.090;18.522;2024-02-28T04:41:19;6.80;99.90
57719;DHT22;43561;50.090;18.522;2024-02-28T04:51:21;6.70;99.90
57719;DHT22;43561;50.090;18.522;2024-02-28T05:01:23;6.70;99.90
57719;DHT22;43561;50.090;18.522;2024-02-28T05:11:26;6.70;99.90
57719;DHT22;43561;50.090;18.522;2024-02-28T05:21:30;6.70;99.90
57719;DHT22;43561;50.090;18.522;2024-02-28T05:31:33;6.70;99.90
57719;DHT22;43561;50.090;18.522;2024-02-28T05:41:35;6.70;99.90
57719;DHT22;43561;50.090;18.522;2024-02-28T05:51:37;6.70;99.90
57719;DHT22;43561;50.090;18.522;2024-02-28T06:01:49;6.60;99.90
57719;DHT22;43561;50.090;18.522;2024-02-28T06:11:54;6.90;99.90
57719;DHT22;43561;50.090;18.522;2024-02-28T06:22:03;6.60;99.90
57719;DHT22;43561;50.090;18.522;2024-02-28T06:32:11;6.70;99.90
57719;DHT22;43561;50.090;18.522;2024-02-28T06:42:14;6.70;99.90
57719;DHT22;43561;50.090;18.522;2024-02-28T06:52:17;6.70;99.90
57719;DHT22;43561;50.090;18.522;2024-02-28T07:02:21;6.60;99.90
57719;DHT22;43561;50.090;18.522;2024-02-28T07:12:36;6.70;99.90
57719;DHT22;43561;50.090;18.522;2024-02-28T07:22:38;6.70;99.90
57719;DHT22;43561;50.090;18.522;2024-02-28T07:32:40;6.90;99.90
57719;DHT22;43561;50.090;18.522;2024-02-28T07:42:42;7.00;99.90
57719;DHT22;43561;50.090;18.522;2024-02-28T07:52:50;7.00;99.90
57719;DHT22;43561;50.090;18.522;2024-02-28T08:02:57;7.20;99.90
57719;DHT22;43561;50.090;18.522;2024-02-28T08:12:59;7.30;99.90
57719;DHT22;43561;50.090;18.522;2024-02-28T08:23:02;7.40;99.90
57719;DHT22;43561;50.090;18.522;2024-02-28T08:33:06;7.50;99.90
57719;DHT22;43561;50.090;18.522;2024-02-28T08:43:08;7.60;99.90
57719;DHT22;43561;50.090;18.522;2024-02-28T08:53:31;7.70;99.90
57719;DHT22;43561;50.090;18.522;2024-02-28T09:14:02;7.90;99.90
57719;DHT22;43561;50.090;18.522;2024-02-28T09:24:25;8.10;99.90
57719;DHT22;43561;50.090;18.522;2024-02-28T09:34:27;8.00;99.90
57719;DHT22;43561;50.090;18.522;2024-02-28T09:44:37;8.00;99.90
57719;DHT22;43561;50.090;18.522;2024-02-28T09:54:40;8.10;99.90
57719;DHT22;43561;50.090;18.522;2024-02-28T10:04:43;8.00;99.90
57719;DHT22;43561;50.090;18.522;2024-02-28T10:14:48;8.00;99.90
57719;DHT22;43561;50.090;18.522;2024-02-28T10:24:59;8.00;99.90
57719;DHT22;43561;50.090;18.522;2024-02-28T10:35:01;8.20;99.90
57719;DHT22;43561;50.090;18.522;2024-02-28T10:45:05;8.30;99.90
57719;DHT22;43561;50.090;18.522;2024-02-28T10:55:26;8.40;99.90
57719;DHT22;43561;50.090;18.522;2024-02-28T11:05:40;8.40;99.90
57719;DHT22;43561;50.090;18.522;2024-02-28T11:15:42;8.00;99.90
57719;DHT22;43561;50.090;18.522;2024-02-28T11:25:45;8.20;99.90
57719;DHT22;43561;50.090;18.522;2024-02-28T11:35:55;8.20;99.90
57719;DHT22;43561;50.090;18.522;2024-02-28T11:45:58;8.20;99.90
57719;DHT22;43561;50.090;18.522;2024-02-28T11:56:02;8.40;99.90
57719;DHT22;43561;50.090;18.522;2024-02-28T12:06:05;8.80;99.90
57719;DHT22;43561;50.090;18.522;2024-02-28T12:16:08;8.70;99.90
57719;DHT22;43561;50.090;18.522;2024-02-28T12:36:58;8.60;99.90
57719;DHT22;43561;50.090;18.522;2024-02-28T12:47:03;8.70;99.90
57719;DHT22;43561;50.090;18.522;2024-02-28T12:57:06;8.80;99.90
57719;DHT22;43561;50.090;18.522;2024-02-28T13:07:08;8.90;99.90
57719;DHT22;43561;50.090;18.522;2024-02-28T13:17:13;9.00;99.90
57719;DHT22;43561;50.090;18.522;2024-02-28T13:27:26;9.10;99.90
57719;DHT22;43561;50.090;18.522;2024-02-28T13:37:28;9.10;99.90
57719;DHT22;43561;50.090;18.522;2024-02-28T13:47:31;9.00;99.90
57719;DHT22;43561;50.090;18.522;2024-02-28T13:57:36;9.00;99.90
57719;DHT22;43561;50.090;18.522;2024-02-28T14:07:43;9.00;99.90
57719;DHT22;43561;50.090;18.522;2024-02-28T14:17:45;8.90;99.90
57719;DHT22;43561;50.090;18.522;2024-02-28T14:27:49;8.80;99.90
57719;DHT22;43561;50.090;18.522;2024-02-28T14:37:51;8.80;99.90
57719;DHT22;43561;50.090;18.522;2024-02-28T14:47:53;8.90;99.90
57719;DHT22;43561;50.090;18.522;2024-02-28T14:57:55;8.80;99.90
57719;DHT22;43561;50.090;18.522;2024-02-28T15:07:57;8.90;99.90
57719;DHT22;43561;50.090;18.522;2024-02-28T15:18:05;8.70;99.90
57719;DHT22;43561;50.090;18.522;2024-02-28T15:28:07;8.70;99.90
57719;DHT22;43561;50.090;18.522;2024-02-28T16:01:11;8.40;99.90
57719;DHT22;43561;50.090;18.522;2024-02-28T16:11:13;8.40;99.90
57719;DHT22;43561;50.090;18.522;2024-02-28T16:21:16;8.20;99.90
57719;DHT22;43561;50.090;18.522;2024-02-28T16:31:18;8.10;99.90
57719;DHT22;43561;50.090;18.522;2024-02-28T16:41:26;8.00;99.90
57719;DHT22;43561;50.090;18.522;2024-02-28T16:51:28;7.90;99.90
57719;DHT22;43561;50.090;18.522;2024-02-28T17:01:30;7.90;99.90
57719;DHT22;43561;50.090;18.522;2024-02-28T17:11:32;7.80;99.90
57719;DHT22;43561;50.090;18.522;2024-02-28T17:21:35;7.80;99.90
57719;DHT22;43561;50.090;18.522;2024-02-28T17:31:37;7.70;99.90
57719;DHT22;43561;50.090;18.522;2024-02-28T17:41:39;7.70;99.90
57719;DHT22;43561;50.090;18.522;2024-02-28T17:51:41;7.70;99.90
57719;DHT22;43561;50.090;18.522;2024-02-28T18:01:43;7.70;99.90
57719;DHT22;43561;50.090;18.522;2024-02-28T18:11:45;7.70;99.90
57719;DHT22;43561;50.090;18.522;2024-02-28T18:21:47;7.60;99.90
57719;DHT22;43561;50.090;18.522;2024-02-28T18:31:49;7.50;99.90
57719;DHT22;43561;50.090;18.522;2024-02-28T18:41:52;7.30;99.90
57719;DHT22;43561;50.090;18.522;2024-02-28T18:51:55;7.30;99.90
57719;DHT22;43561;50.090;18.522;2024-02-28T19:02:00;7.10;99.90
57719;DHT22;43561;50.090;18.522;2024-02-28T19:12:02;7.00;99.90
57719;DHT22;43561;50.090;18.522;2024-02-28T19:22:04;6.90;99.90
57719;DHT22;43561;50.090;18.522;2024-02-28T19:32:06;6.90;99.90
57719;DHT22;43561;50.090;18.522;2024-02-28T19:42:09;6.90;99.90
57719;DHT22;43561;50.090;18.522;2024-02-28T19:52:11;6.70;99.90
57719;DHT22;43561;50.090;18.522;2024-02-28T20:02:16;6.70;99.90
57719;DHT22;43561;50.090;18.522;2024-02-28T20:12:18;6.70;99.90
57719;DHT22;43561;50.090;18.522;2024-02-28T20:22:23;6.60;99.90
57719;DHT22;43561;50.090;18.522;2024-02-28T20:32:25;6.50;99.90
57719;DHT22;43561;50.090;18.522;2024-02-28T20:42:27;6.50;99.90
57719;DHT22;43561;50.090;18.522;2024-02-28T20:52:32;6.60;99.90
57719;DHT22;43561;50.090;18.522;2024-02-28T21:02:34;6.50;99.90
57719;DHT22;43561;50.090;18.522;2024-02-28T21:12:45;6.50;99.90
57719;DHT22;43561;50.090;18.522;2024-02-28T21:22:47;6.50;99.90
57719;DHT22;43561;50.090;18.522;2024-02-28T21:32:49;6.40;99.90
57719;DHT22;43561;50.090;18.522;2024-02-28T21:42:52;6.30;99.90
57719;DHT22;43561;50.090;18.522;2024-02-28T21:52:54;6.30;99.90
57719;DHT22;43561;50.090;18.522;2024-02-28T22:02:58;6.20;99.90
57719;DHT22;43561;50.090;18.522;2024-02-28T22:13:02;6.20;99.90
57719;DHT22;43561;50.090;18.522;2024-02-28T22:23:04;6.30;99.90
57719;DHT22;43561;50.090;18.522;2024-02-28T22:33:06;6.20;99.90
57719;DHT22;43561;50.090;18.522;2024-02-28T22:43:08;6.30;99.90
57719;DHT22;43561;50.090;18.522;2024-02-28T22:53:10;6.20;99.90
57719;DHT22;43561;50.090;18.522;2024-02-28T23:03:13;6.20;99.90
57719;DHT22;43561;50.090;18.522;2024-02-28T23:13:16;6.20;99.90
57719;DHT22;43561;50.090;18.522;2024-02-28T23:23:18;6.20;99.90
57719;DHT22;43561;50.090;18.522;2024-02-28T23:33:20;6.20;99.90
57719;DHT22;43561;50.090;18.522;2024-02-28T23:43:22;6.10;99.90
57719;DHT22;43561;50.090;18.522;2024-02-28T23:53:24;6.20;99.90
